Time;durP1;ratioP1;P1;durP2;ratioP2;P2;SDS_P1;SDS_P2;PMS_P1;PMS_P2;Temp;Humidity;BMP_temperature;BMP_pressure;BME280_temperature;BME280_humidity;BME280_pressure;Samples;Min_cycle;Max_cycle;Signal;HPM_P1;HPM_P2
2023/12/26 00:00:35;;;;;;;5.50;2.53;;;20.20;88.70;;;;;;5014010;28;20050;-67
2023/12/26 00:03:06;;;;;;;4.25;2.38;;;20.40;89.00;;;;;;5045812;28;20121;-68
2023/12/26 00:05:32;;;;;;;4.75;2.42;;;;;;;;;;5030682;28;20061;-68
2023/12/26 00:07:58;;;;;;;6.18;2.70;;;20.30;89.10;;;;;;5012007;28;21905;-68
2023/12/26 00:10:24;;;;;;;4.90;2.60;;;20.20;89.30;;;;;;5046491;28;20038;-69
2023/12/26 00:12:50;;;;;;;5.35;2.38;;;20.20;89.30;;;;;;5046248;28;20062;-68
2023/12/26 00:15:17;;;;;;;5.18;2.50;;;20.10;89.20;;;;;;4996893;28;20069;-68
2023/12/26 00:17:43;;;;;;;5.15;2.55;;;20.00;89.60;;;;;;5045313;28;20057;-68
2023/12/26 00:20:09;;;;;;;4.47;2.28;;;20.00;89.70;;;;;;5029069;28;20058;-69
2023/12/26 00:22:35;;;;;;;3.78;2.15;;;20.10;89.90;;;;;;5012965;28;20054;-69
2023/12/26 00:25:01;;;;;;;5.30;2.15;;;20.00;89.90;;;;;;4996854;28;20050;-69
2023/12/26 00:27:28;;;;;;;5.28;2.00;;;;;;;;;;5010708;28;20088;-68
2023/12/26 00:29:54;;;;;;;4.45;2.00;;;20.00;90.00;;;;;;5012001;28;20046;-69
2023/12/26 00:32:20;;;;;;;3.70;1.80;;;19.80;90.00;;;;;;5012037;28;20054;-67
2023/12/26 00:34:46;;;;;;;3.50;1.63;;;19.80;90.10;;;;;;4980524;28;20057;-68
2023/12/26 00:37:12;;;;;;;4.07;1.70;;;19.80;90.10;;;;;;4996651;28;20049;-69
2023/12/26 00:39:38;;;;;;;4.10;1.60;;;;;;;;;;5011663;28;20065;-68
2023/12/26 00:42:04;;;;;;;4.00;1.40;;;19.60;90.10;;;;;;5045212;28;20389;-69
2023/12/26 00:44:30;;;;;;;3.53;1.52;;;19.70;90.10;;;;;;5012629;28;20042;-70
2023/12/26 00:46:56;;;;;;;3.20;1.50;;;19.60;90.10;;;;;;5029136;28;20061;-69
2023/12/26 00:49:21;;;;;;;5.07;1.42;;;19.60;90.10;;;;;;5044647;28;20092;-66
2023/12/26 00:51:47;;;;;;;2.65;1.25;;;19.40;90.10;;;;;;5013801;28;20048;-68
2023/12/26 00:54:13;;;;;;;3.50;1.40;;;19.40;90.20;;;;;;5010742;28;20049;-70
2023/12/26 00:56:39;;;;;;;5.00;1.38;;;;;;;;;;5010760;28;20124;-68
2023/12/26 00:59:05;;;;;;;2.92;1.08;;;19.30;90.20;;;;;;5013712;28;20550;-68
2023/12/26 01:01:30;;;;;;;1.65;0.90;;;19.30;90.20;;;;;;5028547;28;20037;-69
2023/12/26 01:03:56;;;;;;;2.63;1.10;;;19.30;90.20;;;;;;5012564;28;20045;-68
2023/12/26 01:06:22;;;;;;;2.28;1.00;;;19.20;90.30;;;;;;5011478;28;20049;-67
2023/12/26 01:08:48;;;;;;;1.77;0.82;;;19.20;90.30;;;;;;5028751;28;20117;-66
2023/12/26 01:11:13;;;;;;;2.58;1.15;;;19.10;90.30;;;;;;5045605;28;20057;-69
2023/12/26 01:13:40;;;;;;;2.15;0.77;;;;;;;;;;5044869;28;20058;-68
2023/12/26 01:16:07;;;;;;;2.33;1.13;;;;;;;;;;5012391;28;20074;-68
2023/12/26 01:18:32;;;;;;;2.00;0.80;;;19.00;90.40;;;;;;5012528;28;20057;-67
2023/12/26 01:20:58;;;;;;;2.10;0.98;;;19.10;90.50;;;;;;5028219;28;20408;-69
2023/12/26 01:23:24;;;;;;;1.35;0.68;;;18.90;90.50;;;;;;5027801;28;20157;-69
2023/12/26 01:25:50;;;;;;;2.17;0.75;;;;;;;;;;5012063;28;20381;-68
2023/12/26 01:28:16;;;;;;;2.65;0.93;;;18.80;90.50;;;;;;5011817;28;20046;-68
2023/12/26 01:30:42;;;;;;;1.52;0.60;;;18.80;90.50;;;;;;5044892;28;20042;-68
2023/12/26 01:33:08;;;;;;;1.90;0.93;;;18.90;90.60;;;;;;5013264;28;20196;-69
2023/12/26 01:35:34;;;;;;;2.38;0.80;;;18.80;90.60;;;;;;5010505;28;20048;-69
2023/12/26 01:38:00;;;;;;;1.70;0.75;;;;;;;;;;4993863;28;20500;-68
2023/12/26 01:40:26;;;;;;;1.92;0.90;;;18.90;90.50;;;;;;5027441;28;20511;-67
2023/12/26 01:42:51;;;;;;;2.45;0.63;;;18.70;90.70;;;;;;5045183;28;20050;-69
2023/12/26 01:45:17;;;;;;;2.00;0.68;;;18.70;90.70;;;;;;5044470;28;20396;-67
2023/12/26 01:47:44;;;;;;;1.52;0.60;;;;;;;;;;5011665;28;20125;-67
2023/12/26 01:50:10;;;;;;;0.88;0.40;;;18.70;90.80;;;;;;5043559;28;20053;-68
2023/12/26 01:52:38;;;;;;;1.40;0.60;;;18.70;90.80;;;;;;5044748;28;20061;-68
2023/12/26 01:55:04;;;;;;;1.80;0.80;;;18.60;90.80;;;;;;5011277;28;20049;-68
2023/12/26 01:57:32;;;;;;;2.47;0.85;;;18.50;90.90;;;;;;5010818;28;20402;-68
2023/12/26 01:59:58;;;;;;;1.50;0.63;;;18.60;90.90;;;;;;4993930;28;20125;-68
2023/12/26 02:02:24;;;;;;;1.55;0.60;;;18.50;90.70;;;;;;4995184;28;20045;-67
2023/12/26 02:04:50;;;;;;;2.70;0.65;;;18.50;90.90;;;;;;5010448;28;20049;-69
2023/12/26 02:07:16;;;;;;;2.63;0.73;;;18.40;90.90;;;;;;5011296;28;20045;-69
2023/12/26 02:09:42;;;;;;;1.27;0.60;;;18.50;90.20;;;;;;5027151;28;20057;-67
2023/12/26 02:12:08;;;;;;;1.50;0.65;;;18.40;91.00;;;;;;4978850;28;20041;-68
2023/12/26 02:14:34;;;;;;;2.42;0.85;;;18.40;91.00;;;;;;5026536;28;20500;-67
2023/12/26 02:17:01;;;;;;;2.78;0.70;;;18.30;91.00;;;;;;5044442;28;20081;-69
2023/12/26 02:19:27;;;;;;;2.13;0.80;;;;;;;;;;5043445;28;20180;-68
2023/12/26 02:21:53;;;;;;;2.60;0.90;;;18.30;91.10;;;;;;5044381;28;20119;-68
2023/12/26 02:24:19;;;;;;;2.75;0.90;;;18.40;91.10;;;;;;5012187;28;20133;-70
2023/12/26 02:26:45;;;;;;;3.35;1.20;;;18.30;91.10;;;;;;5015554;28;20044;-68
2023/12/26 02:29:10;;;;;;;3.58;0.95;;;18.40;91.20;;;;;;4998840;28;20057;-69
2023/12/26 02:31:37;;;;;;;2.20;0.90;;;;;;;;;;5048220;28;20496;-69
2023/12/26 02:34:03;;;;;;;4.10;1.00;;;;;;;;;;5030945;28;20133;-69
2023/12/26 02:36:29;;;;;;;3.50;1.10;;;18.30;91.30;;;;;;5011160;28;20077;-69
2023/12/26 02:38:54;;;;;;;2.88;0.88;;;18.20;91.30;;;;;;5011860;28;20081;-69
2023/12/26 02:41:20;;;;;;;4.05;0.90;;;18.30;91.30;;;;;;5009932;28;20079;-69
2023/12/26 02:43:46;;;;;;;3.70;1.05;;;18.20;91.30;;;;;;5045892;28;20072;-69
2023/12/26 02:46:12;;;;;;;3.58;1.10;;;;;;;;;;5013439;28;20495;-68
2023/12/26 02:48:38;;;;;;;2.28;0.93;;;18.20;91.40;;;;;;5015003;28;20807;-68
2023/12/26 02:51:06;;;;;;;3.22;1.05;;;18.10;90.70;;;;;;5031659;28;20136;-68
2023/12/26 02:53:32;;;;;;;3.45;1.10;;;18.10;91.40;;;;;;5014438;28;20445;-69
2023/12/26 02:55:58;;;;;;;5.00;1.27;;;18.10;91.40;;;;;;5013795;28;20085;-68
2023/12/26 02:58:24;;;;;;;4.82;1.25;;;;;;;;;;5016092;28;20492;-67
2023/12/26 03:00:50;;;;;;;4.35;1.20;;;18.30;91.50;;;;;;5015159;28;20137;-68
2023/12/26 03:03:16;;;;;;;4.20;1.17;;;18.10;91.50;;;;;;5047894;28;20045;-68
2023/12/26 03:05:42;;;;;;;3.08;0.95;;;18.20;91.50;;;;;;5014513;28;20041;-68
2023/12/26 03:08:07;;;;;;;4.30;1.20;;;18.10;91.50;;;;;;5045592;28;20478;-67
2023/12/26 03:10:33;;;;;;;3.75;1.40;;;18.20;91.60;;;;;;5015094;28;20040;-68
2023/12/26 03:12:59;;;;;;;5.60;1.35;;;;;;;;;;5047579;28;20445;-69
2023/12/26 03:15:25;;;;;;;3.72;1.20;;;18.30;91.70;;;;;;5015182;28;20124;-68
2023/12/26 03:17:53;;;;;;;5.82;1.60;;;18.30;91.70;;;;;;5045557;28;20558;-67
2023/12/26 03:20:19;;;;;;;3.85;1.23;;;18.00;91.60;;;;;;5014331;28;20053;-68
2023/12/26 03:22:45;;;;;;;4.47;1.55;;;18.00;91.20;;;;;;5015888;28;20046;-68
2023/12/26 03:25:11;;;;;;;4.32;1.20;;;18.20;91.80;;;;;;5014571;28;20487;-68
2023/12/26 03:27:37;;;;;;;4.05;1.38;;;;;;;;;;5014918;28;20050;-68
2023/12/26 03:30:04;;;;;;;4.80;1.55;;;18.10;91.80;;;;;;5012909;28;20058;-68
2023/12/26 03:32:30;;;;;;;5.88;1.50;;;18.10;91.80;;;;;;4993785;28;20085;-68
2023/12/26 03:34:56;;;;;;;5.32;1.60;;;17.90;91.80;;;;;;5005653;28;20042;-68
2023/12/26 03:37:21;;;;;;;5.18;1.50;;;18.00;91.80;;;;;;5015262;28;20128;-68
2023/12/26 03:39:47;;;;;;;4.28;1.40;;;18.00;91.90;;;;;;5013915;28;20053;-68
2023/12/26 03:42:13;;;;;;;5.40;1.77;;;18.00;91.90;;;;;;5046570;28;20049;-67
2023/12/26 03:44:39;;;;;;;5.82;1.65;;;17.80;91.90;;;;;;5046537;28;20073;-68
2023/12/26 03:47:05;;;;;;;5.30;1.90;;;18.00;91.90;;;;;;5015065;28;20049;-68
2023/12/26 03:49:32;;;;;;;4.82;1.60;;;17.90;91.90;;;;;;5012862;28;20137;-69
2023/12/26 03:51:57;;;;;;;4.93;1.60;;;17.90;91.90;;;;;;5015248;28;20046;-68
2023/12/26 03:54:23;;;;;;;5.50;1.38;;;17.90;92.00;;;;;;5014781;28;20038;-68
2023/12/26 03:56:49;;;;;;;5.70;1.40;;;17.90;92.00;;;;;;5020696;28;20045;-68
2023/12/26 03:59:15;;;;;;;6.22;1.95;;;17.80;92.00;;;;;;5015678;28;20046;-67
2023/12/26 04:01:41;;;;;;;4.35;1.45;;;17.90;92.00;;;;;;5013905;28;20053;-67
2023/12/26 04:04:07;;;;;;;6.25;1.75;;;;;;;;;;5014829;28;20053;-67
2023/12/26 04:06:32;;;;;;;6.53;1.70;;;17.80;92.00;;;;;;5013122;28;20487;-69
2023/12/26 04:08:58;;;;;;;4.75;1.73;;;17.80;92.00;;;;;;5014521;28;20048;-68
2023/12/26 04:11:24;;;;;;;5.70;1.42;;;18.00;92.10;;;;;;5013627;28;20484;-68
2023/12/26 04:13:50;;;;;;;6.05;2.10;;;18.10;92.10;;;;;;5013349;28;20037;-68
2023/12/26 04:16:16;;;;;;;5.82;1.85;;;17.90;92.10;;;;;;5014095;28;20046;-68
2023/12/26 04:18:41;;;;;;;6.38;2.20;;;17.90;92.10;;;;;;5012823;28;20136;-68
2023/12/26 04:21:08;;;;;;;5.22;1.60;;;;;;;;;;5013361;28;20491;-68
2023/12/26 04:23:34;;;;;;;5.20;1.80;;;;;;;;;;5012099;28;20382;-67
2023/12/26 04:25:59;;;;;;;8.57;2.00;;;17.80;92.10;;;;;;5013962;28;20038;-69
2023/12/26 04:28:25;;;;;;;5.72;1.70;;;17.70;92.10;;;;;;5012473;28;20046;-68
2023/12/26 04:30:51;;;;;;;5.63;1.77;;;17.90;92.20;;;;;;5046176;28;20502;-68
2023/12/26 04:33:17;;;;;;;8.25;2.22;;;17.70;92.10;;;;;;5045246;28;20080;-68
2023/12/26 04:35:43;;;;;;;5.28;1.83;;;;;;;;;;5012132;28;20050;-68
2023/12/26 04:38:10;;;;;;;8.48;1.80;;;;;;;;;;5013591;28;20053;-68
2023/12/26 04:40:36;;;;;;;6.28;1.85;;;;;;;;;;5013440;28;20125;-67
2023/12/26 04:43:02;;;;;;;6.50;1.88;;;17.80;92.20;;;;;;5013950;28;20050;-68
2023/12/26 04:45:28;;;;;;;7.03;1.95;;;17.60;92.20;;;;;;5011634;28;20061;-68
2023/12/26 04:47:54;;;;;;;4.60;1.67;;;17.80;92.30;;;;;;5012578;28;20120;-68
2023/12/26 04:50:20;;;;;;;6.90;1.73;;;17.80;92.30;;;;;;5013992;28;20180;-68
2023/12/26 04:52:46;;;;;;;5.80;1.77;;;17.80;92.30;;;;;;5045442;28;20054;-68
2023/12/26 04:55:12;;;;;;;6.25;1.92;;;17.60;92.30;;;;;;5012463;28;20102;-68
2023/12/26 04:57:38;;;;;;;5.40;1.92;;;17.60;92.30;;;;;;5011926;28;20063;-67
2023/12/26 05:00:04;;;;;;;6.88;1.95;;;;;;;;;;5045765;28;20046;-67
2023/12/26 05:02:30;;;;;;;5.82;2.08;;;17.70;91.40;;;;;;5045442;28;20058;-68
2023/12/26 05:04:56;;;;;;;4.72;2.17;;;17.70;92.40;;;;;;5043538;28;20038;-68
2023/12/26 05:07:21;;;;;;;9.52;2.25;;;17.70;92.40;;;;;;4996363;28;20050;-68
2023/12/26 05:09:48;;;;;;;7.25;2.10;;;17.80;92.40;;;;;;5029055;28;20121;-68
2023/12/26 05:12:14;;;;;;;6.47;1.80;;;;;;;;;;5012002;28;20054;-68
2023/12/26 05:14:40;;;;;;;7.90;2.28;;;17.70;92.20;;;;;;5012390;28;20050;-67
2023/12/26 05:17:06;;;;;;;5.38;2.00;;;;;;;;;;5011979;28;20064;-68
2023/12/26 05:19:32;;;;;;;7.18;2.10;;;17.80;92.20;;;;;;5010823;28;20089;-68
2023/12/26 05:21:57;;;;;;;8.75;2.50;;;17.80;92.20;;;;;;5013070;28;20085;-68
2023/12/26 05:24:23;;;;;;;8.40;2.35;;;17.80;92.20;;;;;;5013320;28;20526;-68
2023/12/26 05:26:49;;;;;;;6.93;2.30;;;17.80;92.20;;;;;;5011366;28;20055;-67
2023/12/26 05:29:16;;;;;;;7.30;2.28;;;;;;;;;;5013230;28;20049;-67
2023/12/26 05:31:41;;;;;;;6.72;2.40;;;17.90;92.20;;;;;;5013335;28;20198;-68
2023/12/26 05:34:08;;;;;;;6.40;2.53;;;17.80;92.10;;;;;;5012136;28;20125;-66
2023/12/26 05:36:33;;;;;;;9.07;2.30;;;17.60;91.10;;;;;;5012820;28;20116;-66
2023/12/26 05:39:00;;;;;;;8.93;2.25;;;17.50;92.10;;;;;;5012614;28;20573;-66
2023/12/26 05:41:26;;;;;;;8.57;2.75;;;;;;;;;;5027840;28;20499;-66
2023/12/26 05:43:52;;;;;;;10.10;2.90;;;17.80;92.10;;;;;;5010650;28;20088;-66
2023/12/26 05:46:20;;;;;;;7.43;2.63;;;17.70;92.10;;;;;;4995321;28;20085;-66
2023/12/26 05:48:46;;;;;;;8.38;2.45;;;;;;;;;;5011850;28;20058;-66
2023/12/26 05:51:12;;;;;;;7.50;2.25;;;17.60;92.10;;;;;;5012824;28;20037;-66
2023/12/26 05:53:38;;;;;;;8.88;2.90;;;17.60;92.10;;;;;;5043436;28;20124;-66
2023/12/26 05:56:04;;;;;;;7.93;2.65;;;17.80;92.10;;;;;;5012545;28;20506;-66
2023/12/26 05:58:30;;;;;;;7.82;2.30;;;17.60;92.10;;;;;;5009672;28;20037;-66
2023/12/26 06:00:56;;;;;;;7.38;2.30;;;;;;;;;;5010660;28;20136;-66
2023/12/26 06:03:22;;;;;;;6.60;2.13;;;17.50;92.00;;;;;;5011102;28;20060;-66
2023/12/26 06:05:48;;;;;;;8.63;2.22;;;17.50;92.00;;;;;;5012876;28;20041;-66
2023/12/26 06:08:14;;;;;;;9.90;2.67;;;17.60;92.10;;;;;;5042915;28;20046;-66
2023/12/26 06:10:39;;;;;;;10.23;2.60;;;17.60;92.00;;;;;;5012820;28;20057;-66
2023/12/26 06:13:05;;;;;;;7.35;2.53;;;17.50;92.00;;;;;;5013084;28;20046;-68
2023/12/26 06:15:31;;;;;;;9.00;2.47;;;17.60;92.00;;;;;;5011554;28;20054;-68
2023/12/26 06:17:59;;;;;;;7.35;2.35;;;;;;;;;;5009877;28;20045;-68
2023/12/26 06:20:27;;;;;;;10.57;2.75;;;17.50;92.00;;;;;;5012679;28;20561;-68
2023/12/26 06:22:53;;;;;;;8.70;2.20;;;17.30;91.80;;;;;;5044482;28;20058;-68
2023/12/26 06:25:19;;;;;;;7.70;2.45;;;17.40;92.00;;;;;;5012635;28;20396;-68
2023/12/26 06:27:45;;;;;;;9.48;2.78;;;17.70;92.00;;;;;;5011161;28;20056;-66
2023/12/26 06:30:11;;;;;;;7.35;2.60;;;17.40;90.80;;;;;;5011477;28;20085;-67
2023/12/26 06:32:37;;;;;;;9.70;2.67;;;17.40;92.00;;;;;;5043365;28;20050;-66
2023/12/26 06:35:03;;;;;;;11.05;2.85;;;17.50;92.00;;;;;;5011401;28;20042;-66
2023/12/26 06:37:29;;;;;;;9.40;2.40;;;17.30;91.90;;;;;;5011185;28;20057;-67
2023/12/26 06:39:55;;;;;;;8.10;2.58;;;17.50;92.00;;;;;;5043793;28;20058;-67
2023/12/26 06:42:22;;;;;;;8.40;2.55;;;17.50;91.40;;;;;;5010781;28;20046;-67
2023/12/26 06:44:47;;;;;;;8.25;2.58;;;17.30;92.00;;;;;;5027212;28;20495;-68
2023/12/26 06:47:13;;;;;;;8.73;2.45;;;17.40;90.90;;;;;;5012625;28;20042;-67
2023/12/26 06:49:45;;;;;;;10.10;3.00;;;17.50;92.00;;;;;;5043846;28;20128;-67
2023/12/26 06:52:14;;;;;;;8.00;2.35;;;17.50;92.00;;;;;;5010175;28;20042;-66
2023/12/26 06:54:41;;;;;;;7.18;2.70;;;17.50;92.00;;;;;;4978163;28;20045;-66
2023/12/26 06:57:08;;;;;;;8.88;2.75;;;17.20;91.90;;;;;;4994646;28;20121;-66
2023/12/26 06:59:34;;;;;;;9.52;2.75;;;17.30;91.60;;;;;;5026580;28;20057;-67
2023/12/26 07:02:00;;;;;;;9.43;2.67;;;17.30;91.90;;;;;;4994716;28;20104;-66
2023/12/26 07:04:27;;;;;;;8.75;2.78;;;;;;;;;;5042293;28;20050;-66
2023/12/26 07:06:53;;;;;;;8.85;2.38;;;17.50;91.90;;;;;;5008864;28;20475;-66
2023/12/26 07:09:19;;;;;;;9.43;2.40;;;;;;;;;;5009967;28;20183;-66
2023/12/26 07:11:45;;;;;;;8.95;2.65;;;17.30;91.90;;;;;;5047102;28;20046;-66
2023/12/26 07:14:11;;;;;;;8.30;2.67;;;17.30;91.90;;;;;;5013920;28;20060;-66
2023/12/26 07:16:37;;;;;;;7.15;2.42;;;;;;;;;;5015733;28;20054;-66
2023/12/26 07:19:03;;;;;;;8.85;2.50;;;17.30;91.90;;;;;;5014188;28;20054;-66
2023/12/26 07:21:29;;;;;;;6.75;2.45;;;;;;;;;;4998178;28;20120;-66
2023/12/26 07:23:55;;;;;;;8.70;2.42;;;17.20;91.80;;;;;;5013700;28;20045;-68
2023/12/26 07:26:22;;;;;;;7.55;2.45;;;;;;;;;;5014307;28;20053;-66
2023/12/26 07:28:49;;;;;;;6.90;2.22;;;;;;;;;;5014852;28;20042;-66
2023/12/26 07:31:22;;;;;;;7.68;2.70;;;;;;;;;;5047414;28;20085;-66
2023/12/26 07:33:49;;;;;;;8.25;2.45;;;17.20;91.80;;;;;;5013899;28;20050;-66
2023/12/26 07:36:15;;;;;;;8.05;2.70;;;17.40;91.90;;;;;;4997913;28;20502;-66
2023/12/26 07:38:41;;;;;;;8.82;2.90;;;17.40;91.60;;;;;;5014060;28;20068;-66
2023/12/26 07:41:07;;;;;;;9.18;3.22;;;17.50;91.10;;;;;;5013943;28;20053;-66
2023/12/26 07:43:32;;;;;;;11.70;3.42;;;17.50;90.80;;;;;;5013719;28;20044;-67
2023/12/26 07:45:58;;;;;;;11.73;3.55;;;17.40;90.60;;;;;;5013533;28;20041;-67
2023/12/26 07:48:24;;;;;;;10.32;3.28;;;17.50;90.50;;;;;;5046476;28;20539;-66
2023/12/26 07:50:50;;;;;;;13.50;3.30;;;17.40;90.30;;;;;;5013650;28;20072;-66
2023/12/26 07:53:16;;;;;;;10.48;3.15;;;;;;;;;;5013868;28;20050;-66
2023/12/26 07:55:42;;;;;;;15.65;3.40;;;17.60;90.10;;;;;;5013462;28;20550;-66
2023/12/26 07:58:08;;;;;;;14.75;3.45;;;17.50;89.80;;;;;;5013681;28;20045;-67
2023/12/26 08:00:34;;;;;;;13.63;3.40;;;17.60;89.30;;;;;;5045982;28;20132;-67
2023/12/26 08:03:00;;;;;;;13.38;3.80;;;17.50;89.50;;;;;;5013606;28;20100;-67
2023/12/26 08:05:26;;;;;;;19.13;3.70;;;17.40;89.50;;;;;;4997606;28;20056;-67
2023/12/26 08:07:52;;;;;;;13.52;3.55;;;17.30;88.20;;;;;;5012833;28;20054;-67
2023/12/26 08:10:17;;;;;;;18.65;4.30;;;17.50;90.00;;;;;;4996784;28;20506;-67
2023/12/26 08:12:44;;;;;;;16.95;3.63;;;17.50;90.00;;;;;;4996830;28;20046;-68
2023/12/26 08:15:10;;;;;;;22.45;3.20;;;17.20;90.00;;;;;;5013391;28;20050;-67
2023/12/26 08:17:36;;;;;;;17.80;3.53;;;17.30;90.00;;;;;;4996325;28;20053;-67
2023/12/26 08:20:03;;;;;;;16.90;3.50;;;17.30;87.20;;;;;;5028812;28;20073;-67
2023/12/26 08:22:29;;;;;;;17.85;3.42;;;17.30;90.10;;;;;;5028793;28;20062;-67
2023/12/26 08:24:55;;;;;;;33.45;4.15;;;17.10;90.10;;;;;;4996632;28;20105;-67
2023/12/26 08:27:22;;;;;;;16.58;3.78;;;;;;;;;;4996543;28;20447;-67
2023/12/26 08:29:49;;;;;;;13.25;3.40;;;17.20;90.10;;;;;;4996438;28;20062;-66
2023/12/26 08:32:15;;;;;;;11.93;3.25;;;17.00;90.10;;;;;;5012662;28;20050;-67
2023/12/26 08:34:44;;;;;;;15.48;3.75;;;16.90;90.10;;;;;;5029581;28;20056;-67
2023/12/26 08:37:13;;;;;;;13.38;3.95;;;17.10;86.40;;;;;;5046063;28;20399;-67
2023/12/26 08:39:39;;;;;;;14.48;3.33;;;16.90;90.10;;;;;;5026461;28;20137;-67
2023/12/26 08:42:06;;;;;;;13.23;3.47;;;17.10;90.10;;;;;;5021650;28;20053;-67
2023/12/26 08:44:32;;;;;;;12.82;3.70;;;16.90;90.10;;;;;;4996128;28;20495;-66
2023/12/26 08:47:03;;;;;;;14.35;3.53;;;;;;;;;;5013552;28;20503;-67
2023/12/26 08:49:29;;;;;;;11.57;3.88;;;16.90;90.00;;;;;;5028325;28;20132;-66
2023/12/26 08:51:55;;;;;;;9.98;3.28;;;17.00;90.10;;;;;;5028787;28;20121;-66
2023/12/26 08:54:20;;;;;;;12.43;3.20;;;16.80;90.10;;;;;;5013008;28;20053;-66
2023/12/26 08:56:46;;;;;;;20.25;4.20;;;17.00;90.10;;;;;;4996051;28;20049;-66
2023/12/26 08:59:12;;;;;;;126.13;104.45;;;16.90;90.10;;;;;;5012324;28;20045;-67
2023/12/26 09:01:38;;;;;;;117.25;74.07;;;16.90;90.10;;;;;;5013989;28;20046;-70
2023/12/26 09:04:04;;;;;;;60.50;47.85;;;;;;;;;;5010499;28;20050;-71
2023/12/26 09:06:30;;;;;;;43.85;32.88;;;16.90;86.80;;;;;;5010150;28;20129;-73
2023/12/26 09:08:56;;;;;;;69.45;58.13;;;16.80;90.00;;;;;;5027379;28;20503;-71
2023/12/26 09:11:22;;;;;;;55.55;45.97;;;16.80;90.10;;;;;;5012309;28;20121;-72
2023/12/26 09:13:48;;;;;;;47.22;41.00;;;17.00;90.10;;;;;;5012337;28;20042;-67
2023/12/26 09:16:14;;;;;;;44.42;39.20;;;17.00;90.00;;;;;;5044971;28;20045;-68
2023/12/26 09:18:41;;;;;;;45.60;36.28;;;17.00;89.80;;;;;;5012016;28;20411;-72
2023/12/26 09:21:07;;;;;;;39.35;32.90;;;17.20;89.70;;;;;;5028805;28;20191;-70
2023/12/26 09:23:32;;;;;;;35.72;29.70;;;17.50;89.50;;;;;;5028358;28;20510;-71
2023/12/26 09:26:02;;;;;;;33.05;27.45;;;17.60;89.30;;;;;;5020206;28;20053;-64
2023/12/26 09:28:28;;;;;;;36.75;26.55;;;17.70;89.00;;;;;;5020142;28;20046;-64
2023/12/26 09:30:54;;;;;;;26.45;23.05;;;17.80;88.90;;;;;;5017151;28;20046;-70
2023/12/26 09:33:20;;;;;;;26.95;21.63;;;;;;;;;;5017379;28;20045;-67
2023/12/26 09:35:48;;;;;;;23.63;19.77;;;;;;;;;;5020762;28;20049;-64
2023/12/26 09:38:14;;;;;;;20.08;17.50;;;17.80;85.50;;;;;;5020788;28;20051;-64
2023/12/26 09:40:40;;;;;;;22.48;17.48;;;17.90;88.30;;;;;;5021909;28;20038;-65
2023/12/26 09:43:07;;;;;;;26.40;21.02;;;17.90;88.20;;;;;;4995380;28;20085;-64
2023/12/26 09:45:34;;;;;;;37.83;34.08;;;18.20;88.40;;;;;;5016516;28;20045;-65
2023/12/26 09:48:03;;;;;;;32.38;29.20;;;18.20;88.40;;;;;;5019575;28;20045;-69
2023/12/26 09:50:29;;;;;;;30.20;27.10;;;18.40;88.30;;;;;;5004641;28;20056;-65
2023/12/26 09:52:59;;;;;;;24.95;22.60;;;18.20;88.00;;;;;;5022488;28;20049;-64
2023/12/26 09:55:28;;;;;;;25.13;22.65;;;18.30;87.80;;;;;;5000330;28;20049;-65
2023/12/26 09:57:58;;;;;;;22.95;20.75;;;18.40;87.70;;;;;;5025167;28;20049;-68
2023/12/26 10:00:27;;;;;;;22.30;18.48;;;18.40;87.60;;;;;;4995129;28;20395;-67
2023/12/26 10:02:53;;;;;;;20.08;17.25;;;18.50;87.10;;;;;;5028188;28;20057;-66
2023/12/26 10:05:20;;;;;;;20.42;15.60;;;18.60;87.40;;;;;;5012619;28;20400;-71
2023/12/26 10:07:45;;;;;;;17.27;14.40;;;18.60;87.20;;;;;;5008695;28;20372;-68
2023/12/26 10:10:12;;;;;;;16.85;13.80;;;;;;;;;;5027697;28;20083;-70
2023/12/26 10:12:38;;;;;;;15.95;12.02;;;18.70;86.90;;;;;;5011434;28;20057;-70
2023/12/26 10:15:05;;;;;;;16.98;11.07;;;18.80;86.80;;;;;;4993637;28;20052;-68
2023/12/26 10:17:31;;;;;;;15.45;11.45;;;19.00;86.70;;;;;;4994166;28;20068;-69
2023/12/26 10:20:00;;;;;;;17.13;11.02;;;18.80;84.00;;;;;;4994977;28;20058;-67
2023/12/26 10:22:26;;;;;;;12.75;9.02;;;18.90;86.70;;;;;;5043908;28;20105;-66
2023/12/26 10:24:52;;;;;;;13.43;8.90;;;19.10;83.30;;;;;;5007315;28;20411;-65
2023/12/26 10:27:18;;;;;;;13.05;8.57;;;18.80;86.50;;;;;;5011079;28;20200;-70
2023/12/26 10:29:51;;;;;;;12.30;7.90;;;18.80;86.50;;;;;;5043859;28;20049;-66
2023/12/26 10:32:17;;;;;;;;;;;18.50;83.90;;;;;;5028156;28;20057;-69
2023/12/26 10:34:43;;;;;;;34.28;30.67;;;;;;;;;;4994240;28;19925;-66
2023/12/26 10:37:10;;;;;;;39.95;35.95;;;18.70;86.50;;;;;;5010591;28;20397;-66
2023/12/26 10:39:36;;;;;;;36.05;30.55;;;18.80;86.50;;;;;;5044117;28;20061;-71
2023/12/26 10:42:02;;;;;;;30.20;25.65;;;18.90;86.50;;;;;;5012717;28;20058;-70
2023/12/26 10:45:06;;;;;;;26.98;24.08;;;19.20;82.50;;;;;;5010977;28;20281;-68
2023/12/26 10:47:32;;;;;;;25.73;21.27;;;18.90;83.90;;;;;;4998391;28;20396;-65
2023/12/26 10:50:00;;;;;;;24.02;20.10;;;19.10;83.60;;;;;;5048422;28;20485;-66
2023/12/26 10:52:26;;;;;;;21.83;18.25;;;19.10;86.10;;;;;;5014492;28;20041;-66
2023/12/26 10:54:54;;;;;;;19.48;16.17;;;;;;;;;;5015086;28;20042;-66
2023/12/26 10:57:20;;;;;;;20.85;16.60;;;19.20;86.00;;;;;;5015629;28;20499;-69
2023/12/26 13:54:21;;;;;;;6.90;3.40;;;19.20;87.90;;;;;;5044542;28;20045;-73
2023/12/26 13:57:24;;;;;;;7.28;2.72;;;19.30;88.00;;;;;;5044741;28;20053;-73
2023/12/26 14:00:27;;;;;;;6.45;3.03;;;19.40;84.50;;;;;;5044768;28;20128;-73
2023/12/26 14:03:31;;;;;;;8.05;3.22;;;19.20;84.50;;;;;;5024848;28;20058;-73
2023/12/26 14:06:35;;;;;;;8.45;2.58;;;19.00;84.50;;;;;;5044322;28;20050;-73
2023/12/26 14:09:38;;;;;;;5.40;2.30;;;19.20;84.40;;;;;;5011877;28;20404;-73
2023/12/26 14:12:41;;;;;;;5.85;2.88;;;19.00;84.50;;;;;;5011174;28;20484;-71
2023/12/26 14:15:45;;;;;;;6.28;2.50;;;19.00;84.60;;;;;;4992221;28;20389;-73
2023/12/26 14:18:48;;;;;;;5.82;2.40;;;19.10;84.40;;;;;;5007955;28;20050;-71
2023/12/26 14:21:51;;;;;;;5.40;2.17;;;18.90;88.50;;;;;;5018223;28;20154;-73
2023/12/26 14:24:36;;;;;;;;;;;19.10;86.70;;;;;;5048614;28;20134;-73
2023/12/26 14:27:39;;;;;;;6.35;2.20;;;19.10;85.20;;;;;;5015496;28;19937;-73
2023/12/26 14:30:43;;;;;;;5.22;2.03;;;18.90;88.80;;;;;;5015445;28;20057;-73
2023/12/26 14:33:27;;;;;;;;;;;18.90;86.70;;;;;;5015690;28;20057;-72
2023/12/26 14:36:12;;;;;;;5.68;2.20;;;;;;;;;;5015576;28;19967;-70
2023/12/26 14:39:16;;;;;;;5.43;1.92;;;18.70;85.30;;;;;;5016344;28;20148;-66
2023/12/26 14:42:19;;;;;;;5.30;2.20;;;18.80;89.10;;;;;;5048177;28;20557;-69
2023/12/26 14:45:22;;;;;;;4.72;1.77;;;18.70;85.40;;;;;;4995531;28;20050;-70
2023/12/26 14:48:25;;;;;;;4.85;1.92;;;18.90;87.20;;;;;;5028227;28;20057;-69
2023/12/26 14:51:29;;;;;;;4.93;1.85;;;18.70;89.30;;;;;;5039864;28;20385;-71
2023/12/26 14:54:32;;;;;;;6.05;1.95;;;18.70;89.40;;;;;;5014607;28;20049;-72
2023/12/26 14:57:35;;;;;;;5.68;1.80;;;18.70;85.40;;;;;;5014598;28;20103;-69
2023/12/26 15:00:21;;;;;;;5.78;1.80;;;;;;;;;;5014822;28;20057;-70
2023/12/26 15:02:47;;;;;;;4.82;1.77;;;18.70;89.80;;;;;;5030976;28;20418;-72
2023/12/26 15:05:14;;;;;;;4.78;1.80;;;18.70;89.90;;;;;;5048205;28;20049;-72
2023/12/26 15:07:39;;;;;;;4.60;1.40;;;18.50;89.80;;;;;;5031417;28;20058;-72
2023/12/26 15:10:06;;;;;;;4.45;1.80;;;18.40;89.90;;;;;;5048061;28;20388;-72
2023/12/26 15:12:31;;;;;;;5.38;1.90;;;18.40;90.00;;;;;;5014726;28;20058;-72
2023/12/26 15:14:57;;;;;;;5.65;1.70;;;18.50;90.10;;;;;;5047785;28;20060;-70
2023/12/26 15:17:23;;;;;;;5.07;1.50;;;18.30;90.10;;;;;;5030266;28;20046;-72
2023/12/26 15:19:49;;;;;;;3.78;1.60;;;;;;;;;;5030393;28;20061;-69
2023/12/26 15:22:15;;;;;;;4.63;1.27;;;18.40;90.20;;;;;;5014402;28;20058;-70
2023/12/26 15:24:41;;;;;;;3.95;1.50;;;18.20;90.20;;;;;;5030807;28;20435;-71
2023/12/26 15:27:07;;;;;;;4.47;1.70;;;18.20;90.20;;;;;;5031046;28;20042;-71
2023/12/26 15:29:34;;;;;;;4.68;1.73;;;18.30;90.30;;;;;;5013697;28;20460;-68
2023/12/26 15:32:00;;;;;;;4.60;1.40;;;;;;;;;;4986206;28;20050;-70
2023/12/26 15:34:26;;;;;;;5.40;1.80;;;18.10;90.10;;;;;;5027465;28;20038;-67
2023/12/26 15:36:52;;;;;;;3.53;1.30;;;18.10;90.40;;;;;;4994632;28;20149;-70
2023/12/26 15:39:18;;;;;;;3.47;1.10;;;18.20;90.50;;;;;;4994555;28;20129;-70
2023/12/26 15:41:44;;;;;;;3.00;1.20;;;18.00;90.50;;;;;;5007794;28;20042;-71
2023/12/26 15:44:10;;;;;;;3.55;1.20;;;17.90;90.50;;;;;;5040284;28;20053;-70
2023/12/26 15:46:36;;;;;;;3.67;1.35;;;18.20;90.60;;;;;;4987632;28;20042;-67
2023/12/26 15:49:02;;;;;;;4.63;1.55;;;17.90;90.60;;;;;;5014114;28;20050;-70
2023/12/26 15:51:28;;;;;;;5.97;1.65;;;17.90;90.60;;;;;;5013850;28;20124;-70
2023/12/26 15:53:54;;;;;;;5.43;1.52;;;17.90;90.70;;;;;;4985173;28;20211;-68
2023/12/26 15:56:20;;;;;;;4.05;1.45;;;17.80;90.70;;;;;;5027333;28;20432;-71
2023/12/26 15:58:47;;;;;;;5.00;1.40;;;17.80;90.70;;;;;;4994417;28;20054;-70
2023/12/26 16:01:16;;;;;;;4.50;1.50;;;17.80;90.80;;;;;;4994051;28;20061;-69